sensor_id;sensor_type;location;lat;lon;timestamp;P1;durP1;ratioP1;P2;durP2;ratioP2
17596;SDS011;8917;50.942;6.946;2022-11-12T00:01:00;6.57;;;5.33;;
17596;SDS011;8917;50.942;6.946;2022-11-12T00:03:28;6.03;;;5.43;;
17596;SDS011;8917;50.942;6.946;2022-11-12T00:05:56;9.53;;;5.67;;
17596;SDS011;8917;50.942;6.946;2022-11-12T00:08:24;6.77;;;5.40;;
17596;SDS011;8917;50.942;6.946;2022-11-12T00:10:52;6.50;;;5.37;;
17596;SDS011;8917;50.942;6.946;2022-11-12T00:13:20;7.00;;;5.23;;
17596;SDS011;8917;50.942;6.946;2022-11-12T00:15:47;8.10;;;5.70;;
17596;SDS011;8917;50.942;6.946;2022-11-12T00:18:15;6.40;;;5.53;;
17596;SDS011;8917;50.942;6.946;2022-11-12T00:20:43;10.20;;;5.30;;
17596;SDS011;8917;50.942;6.946;2022-11-12T00:23:10;5.83;;;5.13;;
17596;SDS011;8917;50.942;6.946;2022-11-12T00:25:39;6.20;;;4.77;;
17596;SDS011;8917;50.942;6.946;2022-11-12T00:28:08;7.53;;;5.17;;
17596;SDS011;8917;50.942;6.946;2022-11-12T00:30:36;6.10;;;5.17;;
17596;SDS011;8917;50.942;6.946;2022-11-12T00:33:04;6.20;;;4.80;;
17596;SDS011;8917;50.942;6.946;2022-11-12T00:35:32;7.80;;;5.30;;
17596;SDS011;8917;50.942;6.946;2022-11-12T00:38:00;5.93;;;4.97;;
17596;SDS011;8917;50.942;6.946;2022-11-12T00:40:28;6.07;;;5.07;;
17596;SDS011;8917;50.942;6.946;2022-11-12T00:42:57;7.07;;;4.70;;
17596;SDS011;8917;50.942;6.946;2022-11-12T00:45:24;7.33;;;5.10;;
17596;SDS011;8917;50.942;6.946;2022-11-12T00:47:53;5.43;;;4.93;;
17596;SDS011;8917;50.942;6.946;2022-11-12T00:50:21;6.67;;;4.87;;
17596;SDS011;8917;50.942;6.946;2022-11-12T00:52:50;6.73;;;4.57;;
17596;SDS011;8917;50.942;6.946;2022-11-12T00:55:18;7.40;;;4.90;;
17596;SDS011;8917;50.942;6.946;2022-11-12T00:57:45;6.10;;;4.77;;
17596;SDS011;8917;50.942;6.946;2022-11-12T01:00:15;6.93;;;4.67;;
17596;SDS011;8917;50.942;6.946;2022-11-12T01:02:43;5.37;;;4.60;;
17596;SDS011;8917;50.942;6.946;2022-11-12T01:05:11;8.10;;;5.67;;
17596;SDS011;8917;50.942;6.946;2022-11-12T01:07:39;6.50;;;5.03;;
17596;SDS011;8917;50.942;6.946;2022-11-12T01:10:07;7.07;;;5.50;;
17596;SDS011;8917;50.942;6.946;2022-11-12T01:12:35;6.23;;;5.50;;
17596;SDS011;8917;50.942;6.946;2022-11-12T01:15:02;6.27;;;5.00;;
17596;SDS011;8917;50.942;6.946;2022-11-12T01:17:32;8.43;;;5.40;;
17596;SDS011;8917;50.942;6.946;2022-11-12T01:19:59;6.43;;;5.13;;
17596;SDS011;8917;50.942;6.946;2022-11-12T01:22:27;7.07;;;5.10;;
17596;SDS011;8917;50.942;6.946;2022-11-12T01:24:55;5.37;;;4.50;;
17596;SDS011;8917;50.942;6.946;2022-11-12T01:27:22;7.97;;;5.07;;
17596;SDS011;8917;50.942;6.946;2022-11-12T01:29:50;5.73;;;5.00;;
17596;SDS011;8917;50.942;6.946;2022-11-12T01:32:18;5.20;;;4.70;;
17596;SDS011;8917;50.942;6.946;2022-11-12T01:34:48;8.03;;;4.53;;
17596;SDS011;8917;50.942;6.946;2022-11-12T01:37:17;6.83;;;5.33;;
17596;SDS011;8917;50.942;6.946;2022-11-12T01:39:45;6.30;;;4.43;;
17596;SDS011;8917;50.942;6.946;2022-11-12T01:42:12;7.17;;;4.63;;
17596;SDS011;8917;50.942;6.946;2022-11-12T01:44:41;6.10;;;5.10;;
17596;SDS011;8917;50.942;6.946;2022-11-12T01:47:10;7.10;;;4.80;;
17596;SDS011;8917;50.942;6.946;2022-11-12T01:49:40;5.30;;;4.80;;
17596;SDS011;8917;50.942;6.946;2022-11-12T01:52:11;5.90;;;4.67;;
17596;SDS011;8917;50.942;6.946;2022-11-12T01:54:39;6.63;;;4.67;;
17596;SDS011;8917;50.942;6.946;2022-11-12T01:57:07;7.00;;;5.07;;
17596;SDS011;8917;50.942;6.946;2022-11-12T01:59:37;5.30;;;4.80;;
17596;SDS011;8917;50.942;6.946;2022-11-12T02:02:06;5.93;;;4.60;;
17596;SDS011;8917;50.942;6.946;2022-11-12T02:04:35;5.70;;;5.10;;
17596;SDS011;8917;50.942;6.946;2022-11-12T02:07:03;6.23;;;4.63;;
17596;SDS011;8917;50.942;6.946;2022-11-12T02:09:33;7.67;;;4.70;;
17596;SDS011;8917;50.942;6.946;2022-11-12T02:12:01;6.60;;;4.83;;
17596;SDS011;8917;50.942;6.946;2022-11-12T02:14:29;5.47;;;4.33;;
17596;SDS011;8917;50.942;6.946;2022-11-12T02:16:55;5.20;;;4.67;;
17596;SDS011;8917;50.942;6.946;2022-11-12T02:19:24;7.43;;;4.97;;
17596;SDS011;8917;50.942;6.946;2022-11-12T02:21:53;6.70;;;4.13;;
17596;SDS011;8917;50.942;6.946;2022-11-12T02:24:31;5.10;;;4.50;;
17596;SDS011;8917;50.942;6.946;2022-11-12T02:26:59;6.23;;;4.60;;
17596;SDS011;8917;50.942;6.946;2022-11-12T02:29:26;5.00;;;4.47;;
17596;SDS011;8917;50.942;6.946;2022-11-12T02:31:54;5.77;;;4.63;;
17596;SDS011;8917;50.942;6.946;2022-11-12T02:34:21;5.83;;;4.60;;
17596;SDS011;8917;50.942;6.946;2022-11-12T02:36:49;5.90;;;4.50;;
17596;SDS011;8917;50.942;6.946;2022-11-12T02:39:18;7.37;;;4.37;;
17596;SDS011;8917;50.942;6.946;2022-11-12T02:41:46;6.03;;;4.53;;
17596;SDS011;8917;50.942;6.946;2022-11-12T02:44:13;6.70;;;4.90;;
17596;SDS011;8917;50.942;6.946;2022-11-12T02:46:41;5.33;;;4.83;;
17596;SDS011;8917;50.942;6.946;2022-11-12T02:49:08;5.60;;;4.53;;
17596;SDS011;8917;50.942;6.946;2022-11-12T02:51:36;5.30;;;4.73;;
17596;SDS011;8917;50.942;6.946;2022-11-12T02:54:04;5.60;;;4.20;;
17596;SDS011;8917;50.942;6.946;2022-11-12T02:56:33;4.80;;;4.17;;
17596;SDS011;8917;50.942;6.946;2022-11-12T02:59:00;6.50;;;4.57;;
17596;SDS011;8917;50.942;6.946;2022-11-12T03:01:28;5.63;;;4.80;;
17596;SDS011;8917;50.942;6.946;2022-11-12T03:03:56;6.43;;;4.50;;
17596;SDS011;8917;50.942;6.946;2022-11-12T03:06:23;6.43;;;4.03;;
17596;SDS011;8917;50.942;6.946;2022-11-12T03:08:51;6.57;;;4.90;;
17596;SDS011;8917;50.942;6.946;2022-11-12T03:11:19;5.73;;;4.60;;
17596;SDS011;8917;50.942;6.946;2022-11-12T03:13:47;5.30;;;4.53;;
17596;SDS011;8917;50.942;6.946;2022-11-12T03:16:15;7.27;;;4.73;;
17596;SDS011;8917;50.942;6.946;2022-11-12T03:18:43;5.93;;;4.70;;
17596;SDS011;8917;50.942;6.946;2022-11-12T03:21:10;6.10;;;4.67;;
17596;SDS011;8917;50.942;6.946;2022-11-12T03:23:38;5.77;;;4.43;;
17596;SDS011;8917;50.942;6.946;2022-11-12T03:26:05;5.27;;;4.40;;
17596;SDS011;8917;50.942;6.946;2022-11-12T03:28:33;5.80;;;4.97;;
17596;SDS011;8917;50.942;6.946;2022-11-12T03:31:02;6.47;;;5.07;;
17596;SDS011;8917;50.942;6.946;2022-11-12T03:33:29;9.40;;;5.47;;
17596;SDS011;8917;50.942;6.946;2022-11-12T03:35:56;7.50;;;5.37;;
17596;SDS011;8917;50.942;6.946;2022-11-12T03:38:24;8.03;;;5.13;;
17596;SDS011;8917;50.942;6.946;2022-11-12T03:40:51;7.27;;;5.20;;
17596;SDS011;8917;50.942;6.946;2022-11-12T03:43:19;6.60;;;5.07;;
17596;SDS011;8917;50.942;6.946;2022-11-12T03:45:46;6.80;;;4.90;;
17596;SDS011;8917;50.942;6.946;2022-11-12T03:48:15;5.87;;;4.83;;
17596;SDS011;8917;50.942;6.946;2022-11-12T03:50:42;5.43;;;4.90;;
17596;SDS011;8917;50.942;6.946;2022-11-12T03:53:10;5.20;;;4.73;;
17596;SDS011;8917;50.942;6.946;2022-11-12T03:55:37;5.53;;;5.03;;
17596;SDS011;8917;50.942;6.946;2022-11-12T03:58:05;7.00;;;5.47;;
17596;SDS011;8917;50.942;6.946;2022-11-12T04:00:32;8.20;;;5.47;;
17596;SDS011;8917;50.942;6.946;2022-11-12T04:02:59;5.73;;;4.90;;
17596;SDS011;8917;50.942;6.946;2022-11-12T04:05:28;8.30;;;6.00;;
17596;SDS011;8917;50.942;6.946;2022-11-12T04:08:13;6.30;;;5.20;;
17596;SDS011;8917;50.942;6.946;2022-11-12T04:10:58;5.40;;;4.87;;
17596;SDS011;8917;50.942;6.946;2022-11-12T04:13:25;6.00;;;5.40;;
17596;SDS011;8917;50.942;6.946;2022-11-12T04:15:53;7.97;;;5.37;;
17596;SDS011;8917;50.942;6.946;2022-11-12T04:18:38;6.93;;;5.07;;
17596;SDS011;8917;50.942;6.946;2022-11-12T04:21:24;7.73;;;5.37;;
17596;SDS011;8917;50.942;6.946;2022-11-12T04:24:11;6.07;;;5.30;;
17596;SDS011;8917;50.942;6.946;2022-11-12T04:26:58;6.20;;;5.27;;
17596;SDS011;8917;50.942;6.946;2022-11-12T04:29:24;5.53;;;5.03;;
17596;SDS011;8917;50.942;6.946;2022-11-12T04:32:09;7.17;;;5.20;;
17596;SDS011;8917;50.942;6.946;2022-11-12T04:34:36;5.37;;;4.87;;
17596;SDS011;8917;50.942;6.946;2022-11-12T04:37:05;6.67;;;5.53;;
17596;SDS011;8917;50.942;6.946;2022-11-12T04:39:33;7.33;;;5.93;;
17596;SDS011;8917;50.942;6.946;2022-11-12T04:42:00;7.27;;;5.33;;
17596;SDS011;8917;50.942;6.946;2022-11-12T04:44:45;8.57;;;5.13;;
17596;SDS011;8917;50.942;6.946;2022-11-12T04:47:25;7.80;;;5.90;;
17596;SDS011;8917;50.942;6.946;2022-11-12T04:49:53;6.10;;;5.40;;
17596;SDS011;8917;50.942;6.946;2022-11-12T04:52:22;6.93;;;5.70;;
17596;SDS011;8917;50.942;6.946;2022-11-12T04:54:49;6.47;;;4.83;;
17596;SDS011;8917;50.942;6.946;2022-11-12T04:57:17;9.30;;;6.03;;
17596;SDS011;8917;50.942;6.946;2022-11-12T04:59:45;6.33;;;5.73;;
17596;SDS011;8917;50.942;6.946;2022-11-12T05:02:12;6.57;;;5.50;;
17596;SDS011;8917;50.942;6.946;2022-11-12T05:04:39;7.07;;;5.50;;
17596;SDS011;8917;50.942;6.946;2022-11-12T05:07:07;6.90;;;5.90;;
17596;SDS011;8917;50.942;6.946;2022-11-12T05:09:36;7.93;;;5.67;;
17596;SDS011;8917;50.942;6.946;2022-11-12T05:12:03;6.90;;;5.73;;
17596;SDS011;8917;50.942;6.946;2022-11-12T05:14:30;6.00;;;5.40;;
17596;SDS011;8917;50.942;6.946;2022-11-12T05:16:58;7.23;;;5.53;;
17596;SDS011;8917;50.942;6.946;2022-11-12T05:19:25;6.43;;;5.40;;
17596;SDS011;8917;50.942;6.946;2022-11-12T05:21:52;7.13;;;5.13;;
17596;SDS011;8917;50.942;6.946;2022-11-12T05:24:32;6.20;;;5.30;;
17596;SDS011;8917;50.942;6.946;2022-11-12T05:27:01;6.73;;;5.60;;
17596;SDS011;8917;50.942;6.946;2022-11-12T05:29:29;6.37;;;4.73;;
17596;SDS011;8917;50.942;6.946;2022-11-12T05:31:56;5.90;;;5.30;;
17596;SDS011;8917;50.942;6.946;2022-11-12T05:34:23;5.73;;;5.10;;
17596;SDS011;8917;50.942;6.946;2022-11-12T05:36:51;7.30;;;5.87;;
17596;SDS011;8917;50.942;6.946;2022-11-12T05:39:18;7.00;;;5.70;;
17596;SDS011;8917;50.942;6.946;2022-11-12T05:41:46;5.80;;;5.20;;
17596;SDS011;8917;50.942;6.946;2022-11-12T05:44:16;5.83;;;5.23;;
17596;SDS011;8917;50.942;6.946;2022-11-12T05:46:43;7.47;;;5.93;;
17596;SDS011;8917;50.942;6.946;2022-11-12T05:49:11;5.53;;;4.97;;
17596;SDS011;8917;50.942;6.946;2022-11-12T05:51:38;6.57;;;5.93;;
17596;SDS011;8917;50.942;6.946;2022-11-12T05:54:06;8.13;;;5.77;;
17596;SDS011;8917;50.942;6.946;2022-11-12T05:56:33;6.30;;;5.70;;
17596;SDS011;8917;50.942;6.946;2022-11-12T05:59:01;6.20;;;5.43;;
17596;SDS011;8917;50.942;6.946;2022-11-12T06:01:30;6.97;;;5.50;;
17596;SDS011;8917;50.942;6.946;2022-11-12T06:03:57;7.43;;;5.50;;
17596;SDS011;8917;50.942;6.946;2022-11-12T06:06:25;8.10;;;5.87;;
17596;SDS011;8917;50.942;6.946;2022-11-12T06:08:52;5.97;;;5.37;;
17596;SDS011;8917;50.942;6.946;2022-11-12T06:11:19;7.57;;;5.80;;
17596;SDS011;8917;50.942;6.946;2022-11-12T06:13:47;5.90;;;5.07;;
17596;SDS011;8917;50.942;6.946;2022-11-12T06:16:14;6.80;;;5.80;;
17596;SDS011;8917;50.942;6.946;2022-11-12T06:18:43;6.77;;;5.70;;
17596;SDS011;8917;50.942;6.946;2022-11-12T06:21:12;6.50;;;5.10;;
17596;SDS011;8917;50.942;6.946;2022-11-12T06:23:46;6.50;;;5.17;;
17596;SDS011;8917;50.942;6.946;2022-11-12T06:26:14;8.07;;;5.87;;
17596;SDS011;8917;50.942;6.946;2022-11-12T06:28:42;6.10;;;5.50;;
17596;SDS011;8917;50.942;6.946;2022-11-12T06:31:09;7.20;;;5.90;;
17596;SDS011;8917;50.942;6.946;2022-11-12T06:33:36;6.90;;;5.53;;
17596;SDS011;8917;50.942;6.946;2022-11-12T06:36:05;6.73;;;6.03;;
17596;SDS011;8917;50.942;6.946;2022-11-12T06:38:34;6.40;;;5.17;;
17596;SDS011;8917;50.942;6.946;2022-11-12T06:41:01;7.60;;;5.60;;
17596;SDS011;8917;50.942;6.946;2022-11-12T06:43:29;6.20;;;5.53;;
17596;SDS011;8917;50.942;6.946;2022-11-12T06:45:59;5.50;;;5.00;;
17596;SDS011;8917;50.942;6.946;2022-11-12T06:48:27;6.57;;;5.83;;
17596;SDS011;8917;50.942;6.946;2022-11-12T06:50:55;6.93;;;5.73;;
17596;SDS011;8917;50.942;6.946;2022-11-12T06:53:24;8.03;;;5.63;;
17596;SDS011;8917;50.942;6.946;2022-11-12T06:55:52;6.63;;;5.50;;
17596;SDS011;8917;50.942;6.946;2022-11-12T06:58:19;9.67;;;5.53;;
17596;SDS011;8917;50.942;6.946;2022-11-12T07:00:46;6.03;;;5.43;;
17596;SDS011;8917;50.942;6.946;2022-11-12T07:03:14;7.40;;;5.50;;
17596;SDS011;8917;50.942;6.946;2022-11-12T07:05:41;6.60;;;5.07;;
17596;SDS011;8917;50.942;6.946;2022-11-12T07:08:09;6.27;;;4.93;;
17596;SDS011;8917;50.942;6.946;2022-11-12T07:10:37;6.10;;;5.50;;
17596;SDS011;8917;50.942;6.946;2022-11-12T07:13:05;6.43;;;5.70;;
17596;SDS011;8917;50.942;6.946;2022-11-12T07:15:32;6.30;;;5.70;;
17596;SDS011;8917;50.942;6.946;2022-11-12T07:17:59;6.23;;;5.60;;
17596;SDS011;8917;50.942;6.946;2022-11-12T07:20:27;5.47;;;4.77;;
17596;SDS011;8917;50.942;6.946;2022-11-12T07:22:54;5.63;;;5.10;;
17596;SDS011;8917;50.942;6.946;2022-11-12T07:25:25;6.03;;;5.30;;
17596;SDS011;8917;50.942;6.946;2022-11-12T07:27:54;6.47;;;5.10;;
17596;SDS011;8917;50.942;6.946;2022-11-12T07:30:22;7.10;;;5.10;;
17596;SDS011;8917;50.942;6.946;2022-11-12T07:32:50;7.10;;;5.33;;
17596;SDS011;8917;50.942;6.946;2022-11-12T07:35:17;5.73;;;5.10;;
17596;SDS011;8917;50.942;6.946;2022-11-12T07:37:45;6.93;;;5.40;;
17596;SDS011;8917;50.942;6.946;2022-11-12T07:40:12;5.50;;;5.00;;
17596;SDS011;8917;50.942;6.946;2022-11-12T07:42:40;6.93;;;5.03;;
17596;SDS011;8917;50.942;6.946;2022-11-12T07:45:09;6.37;;;5.00;;
17596;SDS011;8917;50.942;6.946;2022-11-12T07:47:36;7.30;;;5.00;;
17596;SDS011;8917;50.942;6.946;2022-11-12T07:50:04;7.07;;;5.57;;
17596;SDS011;8917;50.942;6.946;2022-11-12T07:52:31;7.67;;;5.10;;
17596;SDS011;8917;50.942;6.946;2022-11-12T07:54:59;6.40;;;4.70;;
17596;SDS011;8917;50.942;6.946;2022-11-12T07:57:26;5.87;;;4.30;;
17596;SDS011;8917;50.942;6.946;2022-11-12T07:59:53;5.03;;;4.53;;
17596;SDS011;8917;50.942;6.946;2022-11-12T08:02:22;7.07;;;5.03;;
17596;SDS011;8917;50.942;6.946;2022-11-12T08:04:49;5.87;;;5.00;;
17596;SDS011;8917;50.942;6.946;2022-11-12T08:07:17;5.47;;;4.93;;
17596;SDS011;8917;50.942;6.946;2022-11-12T08:09:44;6.73;;;5.30;;
17596;SDS011;8917;50.942;6.946;2022-11-12T08:12:12;6.40;;;4.90;;
17596;SDS011;8917;50.942;6.946;2022-11-12T08:14:39;6.53;;;4.57;;
17596;SDS011;8917;50.942;6.946;2022-11-12T08:17:07;5.30;;;4.70;;
17596;SDS011;8917;50.942;6.946;2022-11-12T08:19:35;4.97;;;4.30;;
17596;SDS011;8917;50.942;6.946;2022-11-12T08:22:03;5.47;;;4.47;;
17596;SDS011;8917;50.942;6.946;2022-11-12T08:24:30;4.97;;;4.30;;
17596;SDS011;8917;50.942;6.946;2022-11-12T08:26:58;6.20;;;4.37;;
17596;SDS011;8917;50.942;6.946;2022-11-12T08:29:25;5.17;;;4.67;;
17596;SDS011;8917;50.942;6.946;2022-11-12T08:31:52;5.73;;;4.37;;
17596;SDS011;8917;50.942;6.946;2022-11-12T08:34:20;6.23;;;4.60;;
17596;SDS011;8917;50.942;6.946;2022-11-12T08:36:48;5.53;;;4.30;;
17596;SDS011;8917;50.942;6.946;2022-11-12T08:39:16;6.07;;;4.60;;
17596;SDS011;8917;50.942;6.946;2022-11-12T08:41:43;5.57;;;4.80;;
17596;SDS011;8917;50.942;6.946;2022-11-12T08:44:11;6.83;;;4.70;;
17596;SDS011;8917;50.942;6.946;2022-11-12T08:46:38;6.03;;;4.60;;
17596;SDS011;8917;50.942;6.946;2022-11-12T08:49:05;5.97;;;4.73;;
17596;SDS011;8917;50.942;6.946;2022-11-12T08:51:33;6.23;;;4.90;;
17596;SDS011;8917;50.942;6.946;2022-11-12T08:54:02;7.17;;;5.10;;
17596;SDS011;8917;50.942;6.946;2022-11-12T08:56:29;10.60;;;5.13;;
17596;SDS011;8917;50.942;6.946;2022-11-12T08:58:57;5.53;;;4.43;;
17596;SDS011;8917;50.942;6.946;2022-11-12T09:01:25;5.40;;;4.63;;
17596;SDS011;8917;50.942;6.946;2022-11-12T09:03:52;5.27;;;4.70;;
17596;SDS011;8917;50.942;6.946;2022-11-12T09:06:20;5.73;;;4.60;;
17596;SDS011;8917;50.942;6.946;2022-11-12T09:08:47;6.37;;;4.40;;
17596;SDS011;8917;50.942;6.946;2022-11-12T09:11:16;6.73;;;4.50;;
17596;SDS011;8917;50.942;6.946;2022-11-12T09:13:43;5.47;;;4.30;;
17596;SDS011;8917;50.942;6.946;2022-11-12T09:16:11;7.20;;;4.30;;
17596;SDS011;8917;50.942;6.946;2022-11-12T09:18:38;5.80;;;4.40;;
17596;SDS011;8917;50.942;6.946;2022-11-12T09:21:06;5.33;;;4.03;;
17596;SDS011;8917;50.942;6.946;2022-11-12T09:23:34;5.60;;;4.93;;
17596;SDS011;8917;50.942;6.946;2022-11-12T09:26:02;6.40;;;5.17;;
17596;SDS011;8917;50.942;6.946;2022-11-12T09:28:31;5.77;;;4.50;;
17596;SDS011;8917;50.942;6.946;2022-11-12T09:30:59;6.10;;;4.40;;
17596;SDS011;8917;50.942;6.946;2022-11-12T09:33:28;5.07;;;4.47;;
17596;SDS011;8917;50.942;6.946;2022-11-12T09:35:58;7.80;;;4.70;;
17596;SDS011;8917;50.942;6.946;2022-11-12T09:38:26;6.97;;;4.40;;
17596;SDS011;8917;50.942;6.946;2022-11-12T09:40:57;6.37;;;4.50;;
17596;SDS011;8917;50.942;6.946;2022-11-12T09:43:28;5.60;;;4.10;;
17596;SDS011;8917;50.942;6.946;2022-11-12T09:46:00;5.20;;;4.50;;
17596;SDS011;8917;50.942;6.946;2022-11-12T09:48:31;5.00;;;4.40;;
17596;SDS011;8917;50.942;6.946;2022-11-12T09:51:01;4.80;;;4.20;;
17596;SDS011;8917;50.942;6.946;2022-11-12T09:53:32;5.17;;;4.67;;
17596;SDS011;8917;50.942;6.946;2022-11-12T09:56:04;6.60;;;4.50;;
17596;SDS011;8917;50.942;6.946;2022-11-12T09:58:32;6.57;;;4.53;;
17596;SDS011;8917;50.942;6.946;2022-11-12T10:01:01;5.63;;;5.03;;
17596;SDS011;8917;50.942;6.946;2022-11-12T10:03:33;5.63;;;4.40;;
17596;SDS011;8917;50.942;6.946;2022-11-12T10:06:04;5.10;;;4.33;;
17596;SDS011;8917;50.942;6.946;2022-11-12T10:08:36;5.10;;;4.60;;
17596;SDS011;8917;50.942;6.946;2022-11-12T10:11:09;5.33;;;4.83;;
17596;SDS011;8917;50.942;6.946;2022-11-12T10:13:42;5.30;;;4.77;;
17596;SDS011;8917;50.942;6.946;2022-11-12T10:16:18;7.10;;;5.17;;
17596;SDS011;8917;50.942;6.946;2022-11-12T10:19:12;5.90;;;4.67;;
17596;SDS011;8917;50.942;6.946;2022-11-12T10:21:44;4.83;;;4.17;;
17596;SDS011;8917;50.942;6.946;2022-11-12T10:24:18;5.87;;;4.20;;
17596;SDS011;8917;50.942;6.946;2022-11-12T10:26:46;5.00;;;4.50;;
17596;SDS011;8917;50.942;6.946;2022-11-12T10:29:16;7.90;;;5.03;;
17596;SDS011;8917;50.942;6.946;2022-11-12T10:31:50;6.47;;;4.80;;
17596;SDS011;8917;50.942;6.946;2022-11-12T10:34:18;6.43;;;4.67;;
17596;SDS011;8917;50.942;6.946;2022-11-12T10:36:47;5.23;;;4.40;;
17596;SDS011;8917;50.942;6.946;2022-11-12T10:39:31;6.13;;;4.43;;
17596;SDS011;8917;50.942;6.946;2022-11-12T10:42:03;5.30;;;4.80;;
17596;SDS011;8917;50.942;6.946;2022-11-12T10:44:30;5.53;;;4.53;;
17596;SDS011;8917;50.942;6.946;2022-11-12T10:49:41;6.60;;;5.30;;
17596;SDS011;8917;50.942;6.946;2022-11-12T10:52:19;5.10;;;4.60;;
17596;SDS011;8917;50.942;6.946;2022-11-12T10:54:46;4.93;;;4.47;;
17596;SDS011;8917;50.942;6.946;2022-11-12T10:57:20;5.90;;;5.03;;
17596;SDS011;8917;50.942;6.946;2022-11-12T10:59:56;7.10;;;5.13;;
17596;SDS011;8917;50.942;6.946;2022-11-12T11:02:31;6.63;;;4.53;;
17596;SDS011;8917;50.942;6.946;2022-11-12T11:05:00;5.27;;;4.67;;
17596;SDS011;8917;50.942;6.946;2022-11-12T11:07:48;5.23;;;4.73;;
17596;SDS011;8917;50.942;6.946;2022-11-12T11:10:21;5.27;;;4.77;;
17596;SDS011;8917;50.942;6.946;2022-11-12T11:12:49;6.27;;;4.60;;
17596;SDS011;8917;50.942;6.946;2022-11-12T11:15:18;5.83;;;5.23;;
17596;SDS011;8917;50.942;6.946;2022-11-12T11:17:45;6.17;;;4.90;;
17596;SDS011;8917;50.942;6.946;2022-11-12T11:20:15;5.87;;;4.80;;
17596;SDS011;8917;50.942;6.946;2022-11-12T11:22:45;5.77;;;4.90;;
17596;SDS011;8917;50.942;6.946;2022-11-12T11:25:18;10.80;;;4.63;;
17596;SDS011;8917;50.942;6.946;2022-11-12T11:27:49;5.80;;;4.67;;
17596;SDS011;8917;50.942;6.946;2022-11-12T11:30:22;4.77;;;4.33;;
17596;SDS011;8917;50.942;6.946;2022-11-12T11:32:59;5.43;;;4.63;;
17596;SDS011;8917;50.942;6.946;2022-11-12T11:35:30;6.90;;;4.90;;
17596;SDS011;8917;50.942;6.946;2022-11-12T11:38:05;5.63;;;4.20;;
17596;SDS011;8917;50.942;6.946;2022-11-12T11:40:35;5.13;;;4.40;;
17596;SDS011;8917;50.942;6.946;2022-11-12T11:43:14;5.17;;;4.53;;
17596;SDS011;8917;50.942;6.946;2022-11-12T11:45:53;5.03;;;3.90;;
17596;SDS011;8917;50.942;6.946;2022-11-12T11:48:25;7.60;;;5.00;;
17596;SDS011;8917;50.942;6.946;2022-11-12T11:50:58;6.63;;;5.40;;
17596;SDS011;8917;50.942;6.946;2022-11-12T11:53:29;6.27;;;5.20;;
17596;SDS011;8917;50.942;6.946;2022-11-12T11:56:00;8.00;;;5.23;;
17596;SDS011;8917;50.942;6.946;2022-11-12T11:58:35;9.33;;;6.13;;
17596;SDS011;8917;50.942;6.946;2022-11-12T12:01:06;5.00;;;4.50;;
17596;SDS011;8917;50.942;6.946;2022-11-12T12:03:38;8.13;;;5.70;;
17596;SDS011;8917;50.942;6.946;2022-11-12T12:06:16;7.37;;;5.50;;
17596;SDS011;8917;50.942;6.946;2022-11-12T12:08:49;5.70;;;5.20;;
17596;SDS011;8917;50.942;6.946;2022-11-12T12:11:20;5.33;;;4.83;;
17596;SDS011;8917;50.942;6.946;2022-11-12T12:13:52;6.80;;;5.23;;
17596;SDS011;8917;50.942;6.946;2022-11-12T12:16:29;5.93;;;5.17;;
17596;SDS011;8917;50.942;6.946;2022-11-12T12:19:00;6.50;;;5.17;;
17596;SDS011;8917;50.942;6.946;2022-11-12T12:21:35;7.87;;;6.00;;
17596;SDS011;8917;50.942;6.946;2022-11-12T12:24:04;5.83;;;5.20;;
17596;SDS011;8917;50.942;6.946;2022-11-12T12:26:36;5.93;;;5.33;;
17596;SDS011;8917;50.942;6.946;2022-11-12T12:29:05;6.57;;;4.73;;
17596;SDS011;8917;50.942;6.946;2022-11-12T12:31:35;6.30;;;5.30;;
17596;SDS011;8917;50.942;6.946;2022-11-12T12:34:04;6.87;;;4.50;;
17596;SDS011;8917;50.942;6.946;2022-11-12T12:36:35;3.97;;;3.57;;
17596;SDS011;8917;50.942;6.946;2022-11-12T12:39:07;5.63;;;4.93;;
17596;SDS011;8917;50.942;6.946;2022-11-12T12:41:38;7.03;;;4.53;;
17596;SDS011;8917;50.942;6.946;2022-11-12T12:44:07;6.33;;;4.53;;
17596;SDS011;8917;50.942;6.946;2022-11-12T12:46:36;7.70;;;4.50;;
17596;SDS011;8917;50.942;6.946;2022-11-12T12:49:05;6.57;;;5.37;;
17596;SDS011;8917;50.942;6.946;2022-11-12T12:51:34;7.37;;;4.57;;
17596;SDS011;8917;50.942;6.946;2022-11-12T12:54:02;5.30;;;4.40;;
17596;SDS011;8917;50.942;6.946;2022-11-12T12:56:42;5.53;;;4.87;;
17596;SDS011;8917;50.942;6.946;2022-11-12T12:59:18;6.27;;;4.50;;
17596;SDS011;8917;50.942;6.946;2022-11-12T13:01:50;4.80;;;4.27;;
17596;SDS011;8917;50.942;6.946;2022-11-12T13:07:04;4.53;;;4.07;;
17596;SDS011;8917;50.942;6.946;2022-11-12T13:09:31;8.37;;;5.30;;
17596;SDS011;8917;50.942;6.946;2022-11-12T13:11:58;5.17;;;4.50;;
17596;SDS011;8917;50.942;6.946;2022-11-12T13:14:44;6.33;;;5.20;;
17596;SDS011;8917;50.942;6.946;2022-11-12T13:25:31;6.47;;;4.43;;
17596;SDS011;8917;50.942;6.946;2022-11-12T13:28:09;7.70;;;5.40;;
17596;SDS011;8917;50.942;6.946;2022-11-12T13:30:56;7.43;;;5.00;;
17596;SDS011;8917;50.942;6.946;2022-11-12T13:33:26;6.27;;;4.70;;
17596;SDS011;8917;50.942;6.946;2022-11-12T13:38:37;5.50;;;4.27;;
17596;SDS011;8917;50.942;6.946;2022-11-12T13:41:07;6.33;;;4.40;;
17596;SDS011;8917;50.942;6.946;2022-11-12T13:43:38;6.60;;;4.63;;
17596;SDS011;8917;50.942;6.946;2022-11-12T13:46:22;5.93;;;4.63;;
17596;SDS011;8917;50.942;6.946;2022-11-12T13:48:51;6.57;;;4.40;;
17596;SDS011;8917;50.942;6.946;2022-11-12T13:51:22;6.53;;;4.73;;
17596;SDS011;8917;50.942;6.946;2022-11-12T13:53:53;6.87;;;5.03;;
17596;SDS011;8917;50.942;6.946;2022-11-12T13:56:29;7.10;;;4.80;;
17596;SDS011;8917;50.942;6.946;2022-11-12T13:59:07;5.93;;;5.10;;
17596;SDS011;8917;50.942;6.946;2022-11-12T14:01:35;5.57;;;4.93;;
17596;SDS011;8917;50.942;6.946;2022-11-12T14:04:04;5.10;;;4.40;;
17596;SDS011;8917;50.942;6.946;2022-11-12T14:06:37;5.77;;;4.73;;
17596;SDS011;8917;50.942;6.946;2022-11-12T14:09:18;6.23;;;4.50;;
17596;SDS011;8917;50.942;6.946;2022-11-12T14:11:54;5.33;;;4.50;;
17596;SDS011;8917;50.942;6.946;2022-11-12T14:14:34;4.77;;;4.20;;
17596;SDS011;8917;50.942;6.946;2022-11-12T14:17:14;4.53;;;3.87;;
17596;SDS011;8917;50.942;6.946;2022-11-12T14:19:58;4.60;;;3.97;;
17596;SDS011;8917;50.942;6.946;2022-11-12T14:22:37;7.83;;;4.97;;
17596;SDS011;8917;50.942;6.946;2022-11-12T14:25:09;5.77;;;4.10;;
17596;SDS011;8917;50.942;6.946;2022-11-12T14:27:39;4.50;;;3.80;;
17596;SDS011;8917;50.942;6.946;2022-11-12T14:30:10;7.40;;;3.73;;
17596;SDS011;8917;50.942;6.946;2022-11-12T14:32:48;4.07;;;3.50;;
17596;SDS011;8917;50.942;6.946;2022-11-12T14:35:23;4.43;;;3.90;;
17596;SDS011;8917;50.942;6.946;2022-11-12T14:37:59;4.47;;;3.27;;
17596;SDS011;8917;50.942;6.946;2022-11-12T14:40:30;4.73;;;4.03;;
17596;SDS011;8917;50.942;6.946;2022-11-12T14:42:59;4.87;;;3.80;;
17596;SDS011;8917;50.942;6.946;2022-11-12T14:45:27;5.43;;;3.30;;
17596;SDS011;8917;50.942;6.946;2022-11-12T14:47:54;5.00;;;3.83;;
17596;SDS011;8917;50.942;6.946;2022-11-12T14:50:23;5.77;;;3.47;;
17596;SDS011;8917;50.942;6.946;2022-11-12T14:52:54;6.77;;;4.47;;
17596;SDS011;8917;50.942;6.946;2022-11-12T14:55:23;6.23;;;4.17;;
17596;SDS011;8917;50.942;6.946;2022-11-12T14:57:51;3.80;;;3.47;;
17596;SDS011;8917;50.942;6.946;2022-11-12T15:00:35;6.23;;;4.00;;
17596;SDS011;8917;50.942;6.946;2022-11-12T15:03:03;5.63;;;4.17;;
17596;SDS011;8917;50.942;6.946;2022-11-12T15:05:31;3.93;;;3.23;;
17596;SDS011;8917;50.942;6.946;2022-11-12T15:08:02;3.93;;;3.00;;
17596;SDS011;8917;50.942;6.946;2022-11-12T15:10:30;5.33;;;3.60;;
17596;SDS011;8917;50.942;6.946;2022-11-12T15:13:00;3.60;;;2.80;;
17596;SDS011;8917;50.942;6.946;2022-11-12T15:15:27;4.00;;;3.60;;
17596;SDS011;8917;50.942;6.946;2022-11-12T15:17:56;4.20;;;3.50;;
17596;SDS011;8917;50.942;6.946;2022-11-12T15:20:24;5.47;;;3.60;;
17596;SDS011;8917;50.942;6.946;2022-11-12T15:22:52;3.80;;;3.50;;
17596;SDS011;8917;50.942;6.946;2022-11-12T15:25:21;6.53;;;3.90;;
17596;SDS011;8917;50.942;6.946;2022-11-12T15:27:49;4.87;;;4.30;;
17596;SDS011;8917;50.942;6.946;2022-11-12T15:30:18;4.30;;;3.40;;
17596;SDS011;8917;50.942;6.946;2022-11-12T15:32:47;4.70;;;3.70;;